sensor_id;sensor_type;location;lat;lon;timestamp;pressure;altitude;pressure_sealevel;temperature;humidity
71976;BME280;60680;52.182;5.398;2022-10-28T00:01:48;101825.06;;;15.57;91.05
71976;BME280;60680;52.182;5.398;2022-10-28T00:04:15;101817.09;;;15.58;90.85
71976;BME280;60680;52.182;5.398;2022-10-28T00:06:42;101821.50;;;15.58;90.84
71976;BME280;60680;52.182;5.398;2022-10-28T00:09:11;101823.38;;;15.56;90.71
71976;BME280;60680;52.182;5.398;2022-10-28T00:11:38;101816.34;;;15.56;90.71
71976;BME280;60680;52.182;5.398;2022-10-28T00:14:06;101819.13;;;15.53;90.80
71976;BME280;60680;52.182;5.398;2022-10-28T00:16:34;101825.25;;;15.54;90.96
71976;BME280;60680;52.182;5.398;2022-10-28T00:19:04;101822.69;;;15.52;90.71
71976;BME280;60680;52.182;5.398;2022-10-28T00:21:35;101820.91;;;15.53;91.06
71976;BME280;60680;52.182;5.398;2022-10-28T00:24:02;101810.50;;;15.51;90.92
71976;BME280;60680;52.182;5.398;2022-10-28T00:26:31;101801.84;;;15.49;91.00
71976;BME280;60680;52.182;5.398;2022-10-28T00:29:02;101801.09;;;15.47;90.82
71976;BME280;60680;52.182;5.398;2022-10-28T00:31:30;101795.13;;;15.45;90.89
71976;BME280;60680;52.182;5.398;2022-10-28T00:33:58;101798.66;;;15.44;90.89
71976;BME280;60680;52.182;5.398;2022-10-28T00:36:30;101802.13;;;15.44;90.81
71976;BME280;60680;52.182;5.398;2022-10-28T00:38:58;101792.66;;;15.42;91.14
71976;BME280;60680;52.182;5.398;2022-10-28T00:43:55;101796.22;;;15.41;90.75
71976;BME280;60680;52.182;5.398;2022-10-28T00:49:09;101792.72;;;15.40;90.94
71976;BME280;60680;52.182;5.398;2022-10-28T00:51:38;101793.59;;;15.41;91.19
71976;BME280;60680;52.182;5.398;2022-10-28T00:54:05;101785.88;;;15.38;90.87
71976;BME280;60680;52.182;5.398;2022-10-28T00:56:36;101776.34;;;15.37;91.05
71976;BME280;60680;52.182;5.398;2022-10-28T00:59:09;101778.00;;;15.38;91.27
71976;BME280;60680;52.182;5.398;2022-10-28T01:01:37;101778.97;;;15.37;91.31
71976;BME280;60680;52.182;5.398;2022-10-28T01:04:04;101765.91;;;15.35;90.92
71976;BME280;60680;52.182;5.398;2022-10-28T01:06:30;101764.22;;;15.34;91.20
71976;BME280;60680;52.182;5.398;2022-10-28T01:08:57;101757.22;;;15.35;91.07
71976;BME280;60680;52.182;5.398;2022-10-28T01:16:48;101752.88;;;15.34;91.06
71976;BME280;60680;52.182;5.398;2022-10-28T01:22:20;101768.53;;;15.35;90.81
71976;BME280;60680;52.182;5.398;2022-10-28T01:30:28;101769.06;;;15.26;91.08
71976;BME280;60680;52.182;5.398;2022-10-28T01:33:07;101766.53;;;15.24;91.15
71976;BME280;60680;52.182;5.398;2022-10-28T01:35:52;101765.69;;;15.24;91.19
71976;BME280;60680;52.182;5.398;2022-10-28T01:41:37;101760.66;;;15.19;91.18
71976;BME280;60680;52.182;5.398;2022-10-28T01:44:20;101759.75;;;15.20;91.10
71976;BME280;60680;52.182;5.398;2022-10-28T01:49:26;101752.03;;;15.17;91.30
71976;BME280;60680;52.182;5.398;2022-10-28T01:51:57;101755.69;;;15.15;91.43
71976;BME280;60680;52.182;5.398;2022-10-28T01:54:28;101747.81;;;15.15;91.56
71976;BME280;60680;52.182;5.398;2022-10-28T01:56:58;101754.84;;;15.14;91.43
71976;BME280;60680;52.182;5.398;2022-10-28T01:59:28;101745.38;;;15.12;91.07
71976;BME280;60680;52.182;5.398;2022-10-28T02:01:56;101737.50;;;15.12;91.51
71976;BME280;60680;52.182;5.398;2022-10-28T02:04:23;101737.59;;;15.10;91.38
71976;BME280;60680;52.182;5.398;2022-10-28T02:06:52;101737.59;;;15.10;91.83
71976;BME280;60680;52.182;5.398;2022-10-28T02:09:32;101727.09;;;15.10;91.74
71976;BME280;60680;52.182;5.398;2022-10-28T02:12:28;101729.72;;;15.10;91.63
71976;BME280;60680;52.182;5.398;2022-10-28T02:15:18;101724.56;;;15.08;91.18
71976;BME280;60680;52.182;5.398;2022-10-28T02:21:01;101722.03;;;15.07;91.55
71976;BME280;60680;52.182;5.398;2022-10-28T02:23:35;101718.66;;;15.05;91.74
71976;BME280;60680;52.182;5.398;2022-10-28T02:31:19;101712.53;;;15.04;91.74
71976;BME280;60680;52.182;5.398;2022-10-28T02:33:51;101709.34;;;14.99;92.15
71976;BME280;60680;52.182;5.398;2022-10-28T02:36:21;101711.13;;;14.99;91.81
71976;BME280;60680;52.182;5.398;2022-10-28T02:38:49;101720.00;;;14.96;91.78
71976;BME280;60680;52.182;5.398;2022-10-28T02:44:07;101707.91;;;14.94;92.31
71976;BME280;60680;52.182;5.398;2022-10-28T02:46:35;101704.44;;;14.93;92.24
71976;BME280;60680;52.182;5.398;2022-10-28T02:49:07;101707.91;;;14.94;91.78
71976;BME280;60680;52.182;5.398;2022-10-28T02:51:38;101704.44;;;14.93;92.27
71976;BME280;60680;52.182;5.398;2022-10-28T02:54:13;101709.59;;;14.95;91.86
71976;BME280;60680;52.182;5.398;2022-10-28T02:56:58;101712.22;;;14.95;91.55
71976;BME280;60680;52.182;5.398;2022-10-28T02:59:27;101708.06;;;14.91;92.34
71976;BME280;60680;52.182;5.398;2022-10-28T03:01:54;101706.38;;;14.89;92.35
71976;BME280;60680;52.182;5.398;2022-10-28T03:04:21;101703.00;;;14.87;92.15
71976;BME280;60680;52.182;5.398;2022-10-28T03:06:48;101697.94;;;14.84;92.11
71976;BME280;60680;52.182;5.398;2022-10-28T03:09:14;101705.78;;;14.84;92.14
71976;BME280;60680;52.182;5.398;2022-10-28T03:11:40;101709.25;;;14.85;92.43
71976;BME280;60680;52.182;5.398;2022-10-28T03:14:07;101698.09;;;14.81;92.52
71976;BME280;60680;52.182;5.398;2022-10-28T03:16:38;101697.25;;;14.81;91.77
71976;BME280;60680;52.182;5.398;2022-10-28T03:19:04;101699.84;;;14.81;92.21
71976;BME280;60680;52.182;5.398;2022-10-28T03:21:31;101706.03;;;14.80;92.26
71976;BME280;60680;52.182;5.398;2022-10-28T03:23:57;101699.97;;;14.79;92.23
71976;BME280;60680;52.182;5.398;2022-10-28T03:26:24;101706.13;;;14.78;91.98
71976;BME280;60680;52.182;5.398;2022-10-28T03:28:50;101707.06;;;14.77;92.03
71976;BME280;60680;52.182;5.398;2022-10-28T03:31:16;101706.19;;;14.77;92.67
71976;BME280;60680;52.182;5.398;2022-10-28T03:33:43;101710.59;;;14.76;92.32
71976;BME280;60680;52.182;5.398;2022-10-28T03:36:09;101708.81;;;14.77;92.51
71976;BME280;60680;52.182;5.398;2022-10-28T03:38:35;101706.44;;;14.72;92.20
71976;BME280;60680;52.182;5.398;2022-10-28T03:41:02;101694.28;;;14.71;92.00
71976;BME280;60680;52.182;5.398;2022-10-28T03:43:28;101689.97;;;14.70;92.28
71976;BME280;60680;52.182;5.398;2022-10-28T03:45:55;101692.59;;;14.70;92.52
71976;BME280;60680;52.182;5.398;2022-10-28T03:48:21;101683.13;;;14.67;92.69
71976;BME280;60680;52.182;5.398;2022-10-28T03:50:51;101673.47;;;14.68;92.20
71976;BME280;60680;52.182;5.398;2022-10-28T03:53:19;101674.50;;;14.65;92.34
71976;BME280;60680;52.182;5.398;2022-10-28T03:55:57;101679.59;;;14.68;92.55
71976;BME280;60680;52.182;5.398;2022-10-28T03:58:24;101674.44;;;14.67;92.15
71976;BME280;60680;52.182;5.398;2022-10-28T04:00:51;101673.66;;;14.65;92.02
71976;BME280;60680;52.182;5.398;2022-10-28T04:03:20;101672.91;;;14.63;92.03
71976;BME280;60680;52.182;5.398;2022-10-28T04:05:47;101670.34;;;14.61;92.17
71976;BME280;60680;52.182;5.398;2022-10-28T04:08:15;101675.66;;;14.60;92.37
71976;BME280;60680;52.182;5.398;2022-10-28T04:10:42;101678.22;;;14.61;92.13
71976;BME280;60680;52.182;5.398;2022-10-28T04:13:13;101674.75;;;14.61;92.63
71976;BME280;60680;52.182;5.398;2022-10-28T04:15:40;101679.06;;;14.62;92.45
71976;BME280;60680;52.182;5.398;2022-10-28T04:18:07;101682.69;;;14.59;92.42
71976;BME280;60680;52.182;5.398;2022-10-28T04:20:33;101681.09;;;14.57;92.33
71976;BME280;60680;52.182;5.398;2022-10-28T04:23:00;101680.34;;;14.53;92.36
71976;BME280;60680;52.182;5.398;2022-10-28T04:25:27;101680.47;;;14.52;92.20
71976;BME280;60680;52.182;5.398;2022-10-28T04:27:54;101679.69;;;14.50;92.06
71976;BME280;60680;52.182;5.398;2022-10-28T04:30:21;101678.00;;;14.48;92.09
71976;BME280;60680;52.182;5.398;2022-10-28T04:32:48;101678.00;;;14.48;91.90
71976;BME280;60680;52.182;5.398;2022-10-28T04:35:14;101680.03;;;14.43;92.13
71976;BME280;60680;52.182;5.398;2022-10-28T04:37:41;101690.56;;;14.42;92.12
71976;BME280;60680;52.182;5.398;2022-10-28T04:40:07;101676.66;;;14.41;92.20
71976;BME280;60680;52.182;5.398;2022-10-28T04:42:34;101677.56;;;14.40;91.98
71976;BME280;60680;52.182;5.398;2022-10-28T04:45:00;101677.47;;;14.42;92.30
71976;BME280;60680;52.182;5.398;2022-10-28T04:47:27;101676.66;;;14.41;92.21
71976;BME280;60680;52.182;5.398;2022-10-28T04:49:53;101679.41;;;14.38;92.05
71976;BME280;60680;52.182;5.398;2022-10-28T04:52:20;101685.41;;;14.40;92.04
71976;BME280;60680;52.182;5.398;2022-10-28T04:54:46;101672.31;;;14.40;92.07
71976;BME280;60680;52.182;5.398;2022-10-28T04:57:13;101675.94;;;14.38;92.23
71976;BME280;60680;52.182;5.398;2022-10-28T04:59:39;101672.56;;;14.36;92.33
71976;BME280;60680;52.182;5.398;2022-10-28T05:02:06;101665.53;;;14.36;92.22
71976;BME280;60680;52.182;5.398;2022-10-28T05:04:32;101665.72;;;14.33;92.39
71976;BME280;60680;52.182;5.398;2022-10-28T05:06:59;101663.88;;;14.35;92.48
71976;BME280;60680;52.182;5.398;2022-10-28T05:09:25;101663.03;;;14.35;92.53
71976;BME280;60680;52.182;5.398;2022-10-28T05:11:51;101668.28;;;14.35;91.81
71976;BME280;60680;52.182;5.398;2022-10-28T05:14:19;101665.78;;;14.32;92.67
71976;BME280;60680;52.182;5.398;2022-10-28T05:16:45;101661.31;;;14.34;92.40
71976;BME280;60680;52.182;5.398;2022-10-28T05:19:12;101667.56;;;14.31;92.18
71976;BME280;60680;52.182;5.398;2022-10-28T05:21:38;101654.66;;;14.28;91.90
71976;BME280;60680;52.182;5.398;2022-10-28T05:24:05;101653.78;;;14.27;92.56
71976;BME280;60680;52.182;5.398;2022-10-28T05:26:32;101649.56;;;14.25;92.68
71976;BME280;60680;52.182;5.398;2022-10-28T05:28:58;101653.03;;;14.25;91.97
71976;BME280;60680;52.182;5.398;2022-10-28T05:31:24;101663.44;;;14.27;92.05
71976;BME280;60680;52.182;5.398;2022-10-28T05:33:51;101659.13;;;14.26;91.97
71976;BME280;60680;52.182;5.398;2022-10-28T05:36:17;101659.13;;;14.26;92.54
71976;BME280;60680;52.182;5.398;2022-10-28T05:38:43;101652.38;;;14.22;92.53
71976;BME280;60680;52.182;5.398;2022-10-28T05:41:10;101650.66;;;14.21;92.40
71976;BME280;60680;52.182;5.398;2022-10-28T05:43:37;101656.84;;;14.20;92.01
71976;BME280;60680;52.182;5.398;2022-10-28T05:46:03;101653.44;;;14.18;92.29
71976;BME280;60680;52.182;5.398;2022-10-28T05:48:30;101650.84;;;14.18;92.05
71976;BME280;60680;52.182;5.398;2022-10-28T05:50:56;101647.44;;;14.16;92.09
71976;BME280;60680;52.182;5.398;2022-10-28T05:53:23;101652.81;;;14.13;92.06
71976;BME280;60680;52.182;5.398;2022-10-28T05:55:49;101648.47;;;14.13;92.20
71976;BME280;60680;52.182;5.398;2022-10-28T05:58:15;101647.59;;;14.13;92.13
71976;BME280;60680;52.182;5.398;2022-10-28T06:00:42;101643.38;;;14.10;92.55
71976;BME280;60680;52.182;5.398;2022-10-28T06:03:10;101653.91;;;14.08;92.29
71976;BME280;60680;52.182;5.398;2022-10-28T06:05:42;101668.63;;;14.11;92.33
71976;BME280;60680;52.182;5.398;2022-10-28T06:08:10;101652.22;;;14.07;92.02
71976;BME280;60680;52.182;5.398;2022-10-28T06:10:38;101662.84;;;14.04;92.36
71976;BME280;60680;52.182;5.398;2022-10-28T06:13:04;101660.22;;;14.04;92.07
71976;BME280;60680;52.182;5.398;2022-10-28T06:15:31;101643.75;;;14.02;92.47
71976;BME280;60680;52.182;5.398;2022-10-28T06:17:57;101654.22;;;14.02;92.40
71976;BME280;60680;52.182;5.398;2022-10-28T06:20:24;101658.56;;;14.03;91.91
71976;BME280;60680;52.182;5.398;2022-10-28T06:22:52;101664.56;;;14.05;92.49
71976;BME280;60680;52.182;5.398;2022-10-28T06:25:20;101648.09;;;14.03;92.18
71976;BME280;60680;52.182;5.398;2022-10-28T06:27:57;101658.47;;;14.05;92.32
71976;BME280;60680;52.182;5.398;2022-10-28T06:30:25;101665.56;;;14.03;92.00
71976;BME280;60680;52.182;5.398;2022-10-28T06:32:55;101666.34;;;14.05;92.12
71976;BME280;60680;52.182;5.398;2022-10-28T06:35:22;101672.53;;;14.02;92.88
71976;BME280;60680;52.182;5.398;2022-10-28T06:37:55;101669.03;;;14.03;92.50
71976;BME280;60680;52.182;5.398;2022-10-28T06:40:24;101671.72;;;14.02;92.39
71976;BME280;60680;52.182;5.398;2022-10-28T06:43:05;101676.03;;;14.03;92.42
71976;BME280;60680;52.182;5.398;2022-10-28T06:45:33;101668.25;;;14.01;92.15
71976;BME280;60680;52.182;5.398;2022-10-28T06:48:02;101662.06;;;14.02;92.41
71976;BME280;60680;52.182;5.398;2022-10-28T06:50:29;101672.47;;;14.04;92.28
71976;BME280;60680;52.182;5.398;2022-10-28T06:52:56;101674.19;;;14.05;92.49
71976;BME280;60680;52.182;5.398;2022-10-28T06:55:26;101683.63;;;14.07;92.11
71976;BME280;60680;52.182;5.398;2022-10-28T06:57:53;101687.94;;;14.08;92.47
71976;BME280;60680;52.182;5.398;2022-10-28T07:00:20;101684.34;;;14.11;92.40
71976;BME280;60680;52.182;5.398;2022-10-28T07:02:51;101681.47;;;14.16;92.16
71976;BME280;60680;52.182;5.398;2022-10-28T07:05:19;101679.69;;;14.16;92.58
71976;BME280;60680;52.182;5.398;2022-10-28T07:07:45;101669.16;;;14.18;92.16
71976;BME280;60680;52.182;5.398;2022-10-28T07:10:12;101677.84;;;14.18;92.05
71976;BME280;60680;52.182;5.398;2022-10-28T07:12:38;101681.16;;;14.22;92.53
71976;BME280;60680;52.182;5.398;2022-10-28T07:15:05;101681.00;;;14.25;92.04
71976;BME280;60680;52.182;5.398;2022-10-28T07:17:32;101671.28;;;14.27;92.01
71976;BME280;60680;52.182;5.398;2022-10-28T07:19:58;101675.44;;;14.31;92.02
71976;BME280;60680;52.182;5.398;2022-10-28T07:22:25;101672.63;;;14.34;92.37
71976;BME280;60680;52.182;5.398;2022-10-28T07:24:54;101675.09;;;14.37;92.07
71976;BME280;60680;52.182;5.398;2022-10-28T07:27:21;101680.94;;;14.42;91.53
71976;BME280;60680;52.182;5.398;2022-10-28T07:29:47;101680.78;;;14.45;91.45
71976;BME280;60680;52.182;5.398;2022-10-28T07:32:14;101682.41;;;14.48;91.52
71976;BME280;60680;52.182;5.398;2022-10-28T07:34:40;101686.53;;;14.52;91.41
71976;BME280;60680;52.182;5.398;2022-10-28T07:37:07;101684.53;;;14.57;91.30
71976;BME280;60680;52.182;5.398;2022-10-28T07:39:33;101680.91;;;14.60;91.43
71976;BME280;60680;52.182;5.398;2022-10-28T07:41:59;101685.91;;;14.64;91.07
71976;BME280;60680;52.182;5.398;2022-10-28T07:44:26;101680.44;;;14.69;91.25
71976;BME280;60680;52.182;5.398;2022-10-28T07:46:52;101679.34;;;14.73;90.79
71976;BME280;60680;52.182;5.398;2022-10-28T07:49:23;101686.88;;;14.79;90.68
71976;BME280;60680;52.182;5.398;2022-10-28T07:51:49;101693.63;;;14.83;90.23
71976;BME280;60680;52.182;5.398;2022-10-28T07:54:16;101693.44;;;14.86;90.33
71976;BME280;60680;52.182;5.398;2022-10-28T07:56:43;101699.97;;;14.95;89.97
71976;BME280;60680;52.182;5.398;2022-10-28T07:59:09;101703.91;;;15.02;89.44
71976;BME280;60680;52.182;5.398;2022-10-28T08:01:36;101713.16;;;15.09;89.98
71976;BME280;60680;52.182;5.398;2022-10-28T08:04:02;101710.09;;;15.17;89.53
71976;BME280;60680;52.182;5.398;2022-10-28T08:06:29;101708.84;;;15.24;89.06
71976;BME280;60680;52.182;5.398;2022-10-28T08:08:56;101696.28;;;15.29;89.16
71976;BME280;60680;52.182;5.398;2022-10-28T08:11:23;101700.34;;;15.35;88.86
71976;BME280;60680;52.182;5.398;2022-10-28T08:13:52;101697.66;;;15.37;89.25
71976;BME280;60680;52.182;5.398;2022-10-28T08:16:20;101697.47;;;15.40;89.08
71976;BME280;60680;52.182;5.398;2022-10-28T08:18:47;101687.66;;;15.43;88.72
71976;BME280;60680;52.182;5.398;2022-10-28T08:21:14;101688.31;;;15.47;89.25
71976;BME280;60680;52.182;5.398;2022-10-28T08:23:40;101694.97;;;15.53;88.85
71976;BME280;60680;52.182;5.398;2022-10-28T08:26:13;101703.34;;;15.59;88.51
71976;BME280;60680;52.182;5.398;2022-10-28T08:28:40;101696.06;;;15.64;88.96
71976;BME280;60680;52.182;5.398;2022-10-28T08:31:07;101705.13;;;15.75;88.35
71976;BME280;60680;52.182;5.398;2022-10-28T08:33:36;101706.09;;;15.88;88.16
71976;BME280;60680;52.182;5.398;2022-10-28T08:36:03;101706.13;;;16.02;87.79
71976;BME280;60680;52.182;5.398;2022-10-28T08:38:30;101713.44;;;16.12;87.83
71976;BME280;60680;52.182;5.398;2022-10-28T08:47:27;101696.09;;;16.23;86.83
71976;BME280;60680;52.182;5.398;2022-10-28T08:50:02;101697.03;;;16.22;86.42
71976;BME280;60680;52.182;5.398;2022-10-28T08:52:42;101707.34;;;16.25;86.16
71976;BME280;60680;52.182;5.398;2022-10-28T08:55:25;101708.97;;;16.28;86.06
71976;BME280;60680;52.182;5.398;2022-10-28T08:58:13;101696.75;;;16.27;86.45
71976;BME280;60680;52.182;5.398;2022-10-28T09:00:45;101691.34;;;16.30;86.42
71976;BME280;60680;52.182;5.398;2022-10-28T09:03:17;101691.03;;;16.35;86.89
71976;BME280;60680;52.182;5.398;2022-10-28T09:05:47;101688.81;;;16.43;86.07
71976;BME280;60680;52.182;5.398;2022-10-28T09:08:20;101692.44;;;16.55;85.76
71976;BME280;60680;52.182;5.398;2022-10-28T09:16:40;101702.00;;;16.84;85.45
71976;BME280;60680;52.182;5.398;2022-10-28T09:19:36;101696.72;;;16.99;84.76
71976;BME280;60680;52.182;5.398;2022-10-28T09:22:24;101697.16;;;17.05;84.41
71976;BME280;60680;52.182;5.398;2022-10-28T09:24:55;101695.50;;;17.04;84.42
71976;BME280;60680;52.182;5.398;2022-10-28T09:35:40;101681.66;;;17.15;83.42
71976;BME280;60680;52.182;5.398;2022-10-28T09:40:58;101685.78;;;17.19;83.78
71976;BME280;60680;52.182;5.398;2022-10-28T09:43:35;101695.44;;;17.19;83.55
71976;BME280;60680;52.182;5.398;2022-10-28T09:46:11;101698.94;;;17.19;83.13
71976;BME280;60680;52.182;5.398;2022-10-28T09:48:44;101693.09;;;17.14;83.76
71976;BME280;60680;52.182;5.398;2022-10-28T09:51:25;101696.47;;;17.16;83.53
71976;BME280;60680;52.182;5.398;2022-10-28T09:53:58;101697.22;;;17.18;83.80
71976;BME280;60680;52.182;5.398;2022-10-28T09:56:26;101689.53;;;17.15;83.74
71976;BME280;60680;52.182;5.398;2022-10-28T09:58:55;101683.97;;;17.20;83.74
71976;BME280;60680;52.182;5.398;2022-10-28T10:01:23;101687.19;;;17.38;84.03
71976;BME280;60680;52.182;5.398;2022-10-28T10:03:50;101691.56;;;17.51;83.20
71976;BME280;60680;52.182;5.398;2022-10-28T10:06:20;101691.38;;;17.67;82.79
71976;BME280;60680;52.182;5.398;2022-10-28T10:08:49;101695.16;;;17.76;82.14
71976;BME280;60680;52.182;5.398;2022-10-28T10:11:39;101694.69;;;17.84;82.21
71976;BME280;60680;52.182;5.398;2022-10-28T10:14:15;101698.91;;;17.86;81.77
71976;BME280;60680;52.182;5.398;2022-10-28T10:16:44;101693.63;;;17.86;81.95
71976;BME280;60680;52.182;5.398;2022-10-28T10:19:12;101691.31;;;17.95;82.21
71976;BME280;60680;52.182;5.398;2022-10-28T10:21:50;101684.16;;;18.09;81.19
71976;BME280;60680;52.182;5.398;2022-10-28T10:24:24;101685.63;;;18.26;81.59
71976;BME280;60680;52.182;5.398;2022-10-28T10:26:52;101679.09;;;18.32;80.80
71976;BME280;60680;52.182;5.398;2022-10-28T10:29:20;101681.00;;;18.30;80.63
71976;BME280;60680;52.182;5.398;2022-10-28T10:31:47;101679.09;;;18.32;80.05
71976;BME280;60680;52.182;5.398;2022-10-28T10:34:22;101668.25;;;18.37;80.25
71976;BME280;60680;52.182;5.398;2022-10-28T10:36:51;101661.56;;;18.44;80.14
71976;BME280;60680;52.182;5.398;2022-10-28T10:39:22;101668.53;;;18.58;80.48
71976;BME280;60680;52.182;5.398;2022-10-28T10:41:53;101669.66;;;18.66;79.65
71976;BME280;60680;52.182;5.398;2022-10-28T10:49:35;101649.28;;;18.81;79.55
71976;BME280;60680;52.182;5.398;2022-10-28T10:52:16;101647.97;;;18.87;79.61
71976;BME280;60680;52.182;5.398;2022-10-28T10:54:56;101646.06;;;18.89;79.73
71976;BME280;60680;52.182;5.398;2022-10-28T10:57:24;101651.03;;;18.93;78.85
71976;BME280;60680;52.182;5.398;2022-10-28T10:59:53;101661.75;;;19.03;79.49
71976;BME280;60680;52.182;5.398;2022-10-28T11:02:30;101670.88;;;19.10;78.15
71976;BME280;60680;52.182;5.398;2022-10-28T11:05:00;101668.03;;;19.13;78.36
71976;BME280;60680;52.182;5.398;2022-10-28T11:07:28;101667.06;;;19.14;78.62
71976;BME280;60680;52.182;5.398;2022-10-28T11:09:56;101671.50;;;19.14;78.80
71976;BME280;60680;52.182;5.398;2022-10-28T11:12:33;101654.94;;;19.12;78.39
71976;BME280;60680;52.182;5.398;2022-10-28T11:15:21;101657.13;;;19.18;78.55
71976;BME280;60680;52.182;5.398;2022-10-28T11:17:58;101663.16;;;19.20;78.17
71976;BME280;60680;52.182;5.398;2022-10-28T11:30:59;101665.34;;;19.26;77.20
71976;BME280;60680;52.182;5.398;2022-10-28T11:36:22;101653.59;;;19.30;77.16
71976;BME280;60680;52.182;5.398;2022-10-28T11:39:04;101660.34;;;19.34;76.61
71976;BME280;60680;52.182;5.398;2022-10-28T11:41:46;101678.47;;;19.39;77.30
71976;BME280;60680;52.182;5.398;2022-10-28T11:44:32;101660.72;;;19.41;77.29
71976;BME280;60680;52.182;5.398;2022-10-28T11:58:35;101658.59;;;19.58;75.49
71976;BME280;60680;52.182;5.398;2022-10-28T12:06:52;101677.56;;;19.63;75.03
71976;BME280;60680;52.182;5.398;2022-10-28T12:14:56;101663.69;;;19.72;73.78
71976;BME280;60680;52.182;5.398;2022-10-28T12:18:05;101689.16;;;19.73;74.25
71976;BME280;60680;52.182;5.398;2022-10-28T12:20:54;101676.69;;;19.75;74.22
71976;BME280;60680;52.182;5.398;2022-10-28T12:23:23;101670.56;;;19.74;73.49
71976;BME280;60680;52.182;5.398;2022-10-28T12:25:53;101669.69;;;19.74;73.60
71976;BME280;60680;52.182;5.398;2022-10-28T12:28:24;101669.59;;;19.75;72.98
71976;BME280;60680;52.182;5.398;2022-10-28T12:30:54;101682.69;;;19.77;73.88
71976;BME280;60680;52.182;5.398;2022-10-28T12:33:41;101685.81;;;19.82;73.46
71976;BME280;60680;52.182;5.398;2022-10-28T12:36:26;101701.56;;;19.84;73.13
71976;BME280;60680;52.182;5.398;2022-10-28T12:39:05;101687.50;;;19.83;72.48
71976;BME280;60680;52.182;5.398;2022-10-28T12:41:58;101684.97;;;19.82;72.37
71976;BME280;60680;52.182;5.398;2022-10-28T12:44:27;101681.00;;;19.76;72.07
71976;BME280;60680;52.182;5.398;2022-10-28T12:47:02;101687.34;;;19.73;72.48
71976;BME280;60680;52.182;5.398;2022-10-28T12:54:57;101701.72;;;19.69;71.93
71976;BME280;60680;52.182;5.398;2022-10-28T12:57:28;101709.78;;;19.68;72.84
71976;BME280;60680;52.182;5.398;2022-10-28T12:59:59;101707.00;;;19.69;72.13
71976;BME280;60680;52.182;5.398;2022-10-28T13:02:31;101714.59;;;19.74;71.36
71976;BME280;60680;52.182;5.398;2022-10-28T13:04:59;101710.28;;;19.73;72.05
71976;BME280;60680;52.182;5.398;2022-10-28T13:07:51;101726.97;;;19.73;71.87
71976;BME280;60680;52.182;5.398;2022-10-28T13:13:23;101730.75;;;19.69;72.27
71976;BME280;60680;52.182;5.398;2022-10-28T13:16:05;101727.28;;;19.69;72.61
71976;BME280;60680;52.182;5.398;2022-10-28T13:18:48;101723.19;;;19.65;72.50
71976;BME280;60680;52.182;5.398;2022-10-28T13:21:29;101732.91;;;19.64;73.19
71976;BME280;60680;52.182;5.398;2022-10-28T13:24:19;101739.88;;;19.65;72.83
71976;BME280;60680;52.182;5.398;2022-10-28T13:26:48;101740.84;;;19.64;72.67
71976;BME280;60680;52.182;5.398;2022-10-28T13:29:25;101747.69;;;19.67;73.08
71976;BME280;60680;52.182;5.398;2022-10-28T13:31:52;101748.66;;;19.66;73.28
71976;BME280;60680;52.182;5.398;2022-10-28T13:34:27;101744.22;;;19.66;72.54
71976;BME280;60680;52.182;5.398;2022-10-28T13:36:58;101752.13;;;19.66;73.15
71976;BME280;60680;52.182;5.398;2022-10-28T13:44:57;101765.22;;;19.68;73.34
71976;BME280;60680;52.182;5.398;2022-10-28T13:47:27;101757.41;;;19.66;73.07
71976;BME280;60680;52.182;5.398;2022-10-28T13:52:44;101755.63;;;19.67;73.19
71976;BME280;60680;52.182;5.398;2022-10-28T13:55:41;101756.28;;;19.70;73.70
71976;BME280;60680;52.182;5.398;2022-10-28T13:58:21;101757.19;;;19.69;73.17
71976;BME280;60680;52.182;5.398;2022-10-28T14:00:49;101751.31;;;19.66;72.99
71976;BME280;60680;52.182;5.398;2022-10-28T14:03:21;101749.50;;;19.66;73.59
71976;BME280;60680;52.182;5.398;2022-10-28T14:05:52;101767.16;;;19.66;72.96
71976;BME280;60680;52.182;5.398;2022-10-28T14:11:10;101784.75;;;19.65;72.65
71976;BME280;60680;52.182;5.398;2022-10-28T14:13:52;101784.16;;;19.62;73.80
71976;BME280;60680;52.182;5.398;2022-10-28T14:16:24;101792.09;;;19.62;73.61
71976;BME280;60680;52.182;5.398;2022-10-28T14:19:13;101784.16;;;19.62;74.13
71976;BME280;60680;52.182;5.398;2022-10-28T14:24:35;101796.41;;;19.63;73.52
71976;BME280;60680;52.182;5.398;2022-10-28T14:43:17;101774.53;;;19.61;74.70
71976;BME280;60680;52.182;5.398;2022-10-28T14:46:25;101776.34;;;19.60;75.04
71976;BME280;60680;52.182;5.398;2022-10-28T14:48:57;101792.53;;;19.55;75.32
71976;BME280;60680;52.182;5.398;2022-10-28T14:51:34;101806.69;;;19.54;74.80
71976;BME280;60680;52.182;5.398;2022-10-28T14:54:07;101813.03;;;19.52;75.27
71976;BME280;60680;52.182;5.398;2022-10-28T14:56:35;101818.56;;;19.49;75.54
71976;BME280;60680;52.182;5.398;2022-10-28T14:59:19;101815.03;;;19.48;75.34
71976;BME280;60680;52.182;5.398;2022-10-28T15:05:14;101803.16;;;19.43;75.55
71976;BME280;60680;52.182;5.398;2022-10-28T15:07:42;101809.47;;;19.40;76.08
71976;BME280;60680;52.182;5.398;2022-10-28T15:10:21;101816.34;;;19.43;76.26
71976;BME280;60680;52.182;5.398;2022-10-28T15:12:49;101817.53;;;19.39;76.54
71976;BME280;60680;52.182;5.398;2022-10-28T15:15:20;101815.00;;;19.37;76.16
71976;BME280;60680;52.182;5.398;2022-10-28T15:17:47;101808.13;;;19.34;76.44
71976;BME280;60680;52.182;5.398;2022-10-28T15:20:27;101814.34;;;19.33;76.67
71976;BME280;60680;52.182;5.398;2022-10-28T15:23:16;101812.59;;;19.34;76.74
71976;BME280;60680;52.182;5.398;2022-10-28T15:25:44;101827.78;;;19.30;76.96
71976;BME280;60680;52.182;5.398;2022-10-28T15:28:11;101828.72;;;19.29;76.57
71976;BME280;60680;52.182;5.398;2022-10-28T15:30:41;101841.09;;;19.29;76.17
71976;BME280;60680;52.182;5.398;2022-10-28T15:33:30;101850.91;;;19.27;76.97